Time;durP1;ratioP1;P1;durP2;ratioP2;P2;SDS_P1;SDS_P2;PMS_P1;PMS_P2;Temp;Humidity;BMP_temperature;BMP_pressure;BME280_temperature;BME280_humidity;BME280_pressure;Samples;Min_cycle;Max_cycle;Signal;HPM_P1;HPM_P2
2023/09/17 00:01:11;;;;;;;7.32;3.17;;;;;;;23.20;58.82;98495.59;5093602;28;20024;-45
2023/09/17 00:03:37;;;;;;;10.68;2.80;;;;;;;23.32;58.08;98504.00;5093838;28;20032;-45
2023/09/17 00:06:03;;;;;;;16.08;3.67;;;;;;;23.35;57.93;98503.44;5093462;28;20032;-45
2023/09/17 00:08:29;;;;;;;10.60;3.45;;;;;;;23.33;57.84;98498.38;5093503;28;20031;-45
2023/09/17 00:10:55;;;;;;;7.20;2.30;;;;;;;23.21;58.16;98508.72;5092403;28;20077;-45
2023/09/17 00:13:21;;;;;;;7.30;2.60;;;;;;;23.05;58.49;98510.00;5093382;28;20441;-45
2023/09/17 00:15:47;;;;;;;9.02;2.65;;;;;;;23.10;58.77;98515.25;5093283;28;20535;-45
2023/09/17 00:18:13;;;;;;;9.68;3.88;;;;;;;23.43;58.79;98510.03;5093280;28;20077;-45
2023/09/17 00:20:38;;;;;;;5.85;2.53;;;;;;;23.65;57.64;98504.88;5075037;28;20044;-45
2023/09/17 00:23:04;;;;;;;5.45;2.40;;;;;;;23.50;57.18;98491.72;5091937;28;20397;-45
2023/09/17 00:25:30;;;;;;;6.35;2.42;;;;;;;23.05;57.84;98500.06;5093098;28;20105;-45
2023/09/17 00:27:56;;;;;;;6.28;2.53;;;;;;;22.59;58.88;98505.13;5093122;28;20486;-45
2023/09/17 00:30:22;;;;;;;6.63;2.72;;;;;;;22.27;60.08;98501.16;5091775;28;20027;-45
2023/09/17 00:32:47;;;;;;;6.70;2.97;;;;;;;22.11;60.80;98503.94;5093037;28;20032;-45
2023/09/17 00:35:13;;;;;;;9.10;3.25;;;;;;;21.91;61.36;98504.09;5092899;28;20035;-45
2023/09/17 00:37:40;;;;;;;8.05;2.70;;;;;;;21.73;62.16;98497.53;5093184;28;20016;-45
2023/09/17 00:40:09;;;;;;;7.28;2.63;;;;;;;21.68;62.52;98503.72;5092785;28;20035;-45
2023/09/17 00:42:36;;;;;;;8.93;2.50;;;;;;;21.53;62.61;98501.13;5091520;28;20455;-45
2023/09/17 00:45:02;;;;;;;13.07;3.05;;;;;;;21.45;63.65;98501.72;5092806;28;20028;-45
2023/09/17 00:47:29;;;;;;;5.03;2.30;;;;;;;21.67;63.42;98502.13;5091518;28;20420;-45
2023/09/17 00:49:55;;;;;;;12.50;3.25;;;;;;;21.90;62.90;98505.19;5091545;28;20028;-45
2023/09/17 00:52:21;;;;;;;7.90;3.15;;;;;;;22.00;62.01;98510.44;5092621;28;20508;-45
2023/09/17 00:54:49;;;;;;;10.27;2.90;;;;;;;21.90;62.05;98511.31;5092195;28;20028;-45
2023/09/17 00:57:16;;;;;;;5.72;2.90;;;;;;;21.92;62.50;98511.81;5092608;28;20077;-46
2023/09/17 00:59:47;;;;;;;10.77;2.75;;;;;;;22.26;62.23;98516.41;5092712;28;20024;-45
2023/09/17 01:02:14;;;;;;;10.80;3.22;;;;;;;22.50;61.45;98518.31;5092502;28;20063;-45
2023/09/17 01:04:42;;;;;;;8.70;3.00;;;;;;;22.67;60.82;98521.34;5092538;28;20023;-45
2023/09/17 01:07:09;;;;;;;21.65;4.40;;;;;;;22.80;60.30;98514.53;5092410;28;20045;-45
2023/09/17 01:09:37;;;;;;;8.60;3.42;;;;;;;23.05;59.99;98507.31;5092468;28;20067;-45
2023/09/17 01:12:03;;;;;;;11.48;3.22;;;;;;;22.87;59.16;98506.94;5091025;28;20020;-45
2023/09/17 01:14:29;;;;;;;9.05;2.63;;;;;;;22.37;59.96;98509.06;5091171;28;20036;-45
2023/09/17 01:16:56;;;;;;;11.65;2.58;;;;;;;22.02;61.22;98510.94;5092285;28;20060;-45
2023/09/17 01:19:28;;;;;;;10.43;3.33;;;;;;;21.86;62.00;98506.81;5092235;28;20024;-46
2023/09/17 01:22:13;;;;;;;10.48;2.85;;;;;;;22.14;62.69;98495.34;5092539;28;20078;-45
2023/09/17 01:24:45;;;;;;;13.70;4.05;;;;;;;22.50;61.68;98503.06;5092176;28;20505;-45
2023/09/17 01:27:12;;;;;;;18.40;3.78;;;;;;;22.87;60.64;98501.59;5092419;28;20406;-46
2023/09/17 01:29:41;;;;;;;10.68;2.65;;;;;;;23.06;59.31;98500.84;5090903;28;20024;-45
2023/09/17 01:32:08;;;;;;;10.90;2.30;;;;;;;23.05;58.72;98496.59;5074170;28;20050;-45
2023/09/17 01:34:39;;;;;;;14.30;4.50;;;;;;;23.07;59.53;98497.13;5091986;28;20110;-45
2023/09/17 01:37:16;;;;;;;13.73;4.00;;;;;;;23.32;58.77;98501.31;5092160;28;20024;-46
2023/09/17 01:39:47;;;;;;;12.40;3.53;;;;;;;23.57;58.32;98494.84;5092332;28;20367;-45
2023/09/17 01:42:15;;;;;;;8.35;2.78;;;;;;;23.73;57.65;98493.50;5074169;28;20032;-45
2023/09/17 01:44:44;;;;;;;11.95;3.55;;;;;;;23.72;57.17;98494.63;5091860;28;20024;-45
2023/09/17 01:47:10;;;;;;;12.93;3.92;;;;;;;23.61;57.45;98498.53;5091877;28;20081;-45
2023/09/17 01:49:38;;;;;;;17.05;3.80;;;;;;;23.65;57.44;98496.84;5091843;28;20028;-45
2023/09/17 01:52:04;;;;;;;23.40;4.32;;;;;;;23.62;57.49;98497.41;5091777;28;20027;-45
2023/09/17 01:54:30;;;;;;;8.60;3.55;;;;;;;23.59;57.30;98487.31;5091775;28;20494;-45
2023/09/17 01:56:56;;;;;;;14.13;3.92;;;;;;;23.58;57.53;98490.25;5091776;28;20039;-45
2023/09/17 01:59:22;;;;;;;16.73;3.85;;;;;;;23.48;57.40;98483.97;5091689;28;20023;-45
2023/09/17 02:01:48;;;;;;;7.65;2.65;;;;;;;23.23;57.07;98482.44;5090404;28;20028;-45
2023/09/17 02:04:13;;;;;;;7.72;2.83;;;;;;;22.63;58.21;98484.75;5091747;28;20073;-45
2023/09/17 02:06:39;;;;;;;9.15;2.97;;;;;;;22.10;59.97;98480.94;5094667;28;20023;-45
2023/09/17 02:09:05;;;;;;;7.47;2.53;;;;;;;21.83;60.68;98477.97;5095795;28;20028;-45
2023/09/17 02:11:32;;;;;;;8.13;2.58;;;;;;;21.62;61.60;98478.13;5096055;28;20020;-45
2023/09/17 02:13:58;;;;;;;11.02;2.80;;;;;;;21.48;62.19;98469.94;5095726;28;20099;-45
2023/09/17 02:16:24;;;;;;;8.23;2.90;;;;;;;21.46;62.98;98471.28;5095542;28;20197;-45
2023/09/17 02:18:54;;;;;;;7.03;2.72;;;;;;;21.38;62.94;98472.63;5095676;28;20024;-45
2023/09/17 02:21:20;;;;;;;4.85;2.85;;;;;;;21.35;62.89;98468.66;5095362;28;20036;-45
2023/09/17 02:23:45;;;;;;;7.18;3.40;;;;;;;21.30;63.52;98465.22;5095563;28;20020;-45
2023/09/17 02:26:11;;;;;;;6.57;2.45;;;;;;;21.38;62.88;98461.97;5094115;28;20400;-45
2023/09/17 02:28:37;;;;;;;6.50;2.67;;;;;;;21.29;63.06;98464.41;5094509;28;20023;-45
2023/09/17 02:31:03;;;;;;;6.82;3.30;;;;;;;21.17;63.79;98466.63;5095364;28;20048;-45
2023/09/17 02:33:31;;;;;;;11.32;3.13;;;;;;;21.08;63.95;98461.03;5095328;28;20040;-45
2023/09/17 02:35:56;;;;;;;4.65;2.72;;;;;;;20.98;65.01;98469.09;5095162;28;20061;-45
2023/09/17 02:38:22;;;;;;;4.05;2.55;;;;;;;20.91;65.30;98472.06;5095310;28;20428;-45
2023/09/17 02:40:48;;;;;;;8.77;3.40;;;;;;;20.88;65.53;98475.28;5095228;28;20031;-45
2023/09/17 02:43:14;;;;;;;6.82;2.83;;;;;;;20.96;65.20;98468.56;5095191;28;20461;-45
2023/09/17 02:45:40;;;;;;;8.88;2.80;;;;;;;21.00;65.57;98468.84;5095172;28;20025;-45
2023/09/17 02:48:06;;;;;;;12.77;2.92;;;;;;;20.97;65.30;98464.03;5093763;28;20028;-45
2023/09/17 02:50:32;;;;;;;9.68;3.45;;;;;;;20.86;65.67;98469.41;5095051;28;20390;-45
2023/09/17 02:52:58;;;;;;;2.88;2.28;;;;;;;20.87;66.01;98472.91;5095311;28;20028;-45
2023/09/17 02:55:23;;;;;;;9.77;4.25;;;;;;;20.74;66.47;98479.59;5094800;28;20028;-45
2023/09/17 02:57:49;;;;;;;7.03;5.32;;;;;;;20.69;66.71;98472.41;5095139;28;20024;-45
2023/09/17 03:00:17;;;;;;;4.60;3.30;;;;;;;20.69;66.75;98471.63;5094755;28;20490;-45
2023/09/17 03:02:47;;;;;;;9.23;3.60;;;;;;;20.67;66.75;98476.44;5094810;28;20027;-45
2023/09/17 03:05:14;;;;;;;6.82;4.40;;;;;;;20.67;66.67;98471.88;5094690;28;20061;-45
2023/09/17 03:07:41;;;;;;;7.32;4.68;;;;;;;20.60;67.10;98473.25;5094704;28;20028;-45
2023/09/17 03:10:07;;;;;;;11.32;3.58;;;;;;;20.72;67.21;98476.41;5094626;28;20020;-45
2023/09/17 03:12:33;;;;;;;9.95;3.45;;;;;;;20.80;67.01;98465.16;5093327;28;20031;-45
2023/09/17 03:14:59;;;;;;;11.35;4.20;;;;;;;20.88;67.05;98459.25;5093109;28;20397;-45
2023/09/17 03:17:24;;;;;;;8.25;3.25;;;;;;;20.84;66.78;98468.09;5094445;28;20055;-45
2023/09/17 03:19:51;;;;;;;11.02;3.58;;;;;;;20.71;67.29;98472.16;5094235;28;20571;-45
2023/09/17 03:22:17;;;;;;;13.63;3.97;;;;;;;20.87;67.08;98475.56;5094437;28;20112;-45
2023/09/17 03:24:43;;;;;;;9.55;3.42;;;;;;;21.08;66.74;98466.38;5093071;28;20111;-45
2023/09/17 03:27:08;;;;;;;11.23;3.95;;;;;;;21.12;65.87;98463.97;5092973;28;20016;-45
2023/09/17 03:29:34;;;;;;;8.40;3.30;;;;;;;21.04;66.30;98457.31;5092990;28;20038;-45
2023/09/17 03:31:59;;;;;;;15.00;3.72;;;;;;;21.05;66.01;98460.81;5092910;28;20051;-45
2023/09/17 03:34:26;;;;;;;9.55;4.28;;;;;;;21.01;65.82;98454.44;5094236;28;20052;-45
2023/09/17 03:36:51;;;;;;;5.55;2.75;;;;;;;20.91;66.00;98456.06;5092675;28;20034;-45
2023/09/17 03:39:17;;;;;;;7.82;3.45;;;;;;;20.85;66.37;98464.38;5092809;28;20028;-45
2023/09/17 03:41:43;;;;;;;9.32;4.00;;;;;;;20.79;66.21;98460.91;5094059;28;20027;-45
2023/09/17 03:44:11;;;;;;;8.80;3.88;;;;;;;20.83;66.60;98469.19;5093960;28;20093;-45
2023/09/17 03:46:38;;;;;;;8.60;3.33;;;;;;;20.81;66.40;98461.44;5093929;28;20061;-45
2023/09/17 03:49:04;;;;;;;8.52;4.55;;;;;;;20.81;66.68;98457.97;5093825;28;20051;-45
2023/09/17 03:51:30;;;;;;;8.85;2.90;;;;;;;20.91;66.08;98463.28;5093779;28;20099;-45
2023/09/17 03:53:56;;;;;;;12.35;3.90;;;;;;;20.89;66.10;98458.22;5093825;28;20073;-45
2023/09/17 03:56:23;;;;;;;11.85;3.35;;;;;;;20.82;66.38;98464.91;5093977;28;20434;-45
2023/09/17 03:58:48;;;;;;;6.90;3.00;;;;;;;20.73;66.55;98456.69;5092521;28;20073;-45
2023/09/17 04:01:14;;;;;;;10.38;6.28;;;;;;;20.72;66.93;98452.41;5092287;28;20024;-45
2023/09/17 04:03:40;;;;;;;10.98;7.18;;;;;;;20.76;66.49;98453.44;5092366;28;20024;-45
2023/09/17 04:06:06;;;;;;;6.18;3.78;;;;;;;20.79;66.67;98452.91;5093543;28;20020;-45
2023/09/17 04:08:32;;;;;;;8.02;3.97;;;;;;;20.83;66.81;98447.84;5092500;28;20016;-45
2023/09/17 04:10:57;;;;;;;8.98;3.28;;;;;;;20.89;66.58;98450.19;5093606;28;20107;-45
2023/09/17 04:13:23;;;;;;;9.45;4.00;;;;;;;20.99;65.98;98451.22;5093738;28;20612;-45
2023/09/17 04:15:49;;;;;;;11.40;3.67;;;;;;;21.07;65.81;98446.13;5091955;28;20509;-45
2023/09/17 04:18:15;;;;;;;7.43;3.53;;;;;;;21.13;65.48;98439.69;5093288;28;20386;-45
2023/09/17 04:20:40;;;;;;;8.20;3.42;;;;;;;21.13;65.30;98438.88;5093100;28;20043;-45
2023/09/17 04:23:06;;;;;;;9.93;3.72;;;;;;;21.04;65.44;98444.00;5091934;28;20559;-45
2023/09/17 04:25:34;;;;;;;10.43;3.15;;;;;;;21.01;65.58;98447.22;5093250;28;20477;-45
2023/09/17 04:28:00;;;;;;;8.55;3.13;;;;;;;20.94;65.84;98444.03;5091142;28;20028;-45
2023/09/17 04:30:26;;;;;;;9.15;3.47;;;;;;;20.87;66.02;98449.69;5091811;28;20455;-45
2023/09/17 04:32:54;;;;;;;9.13;3.20;;;;;;;20.80;66.29;98451.84;5091764;28;20031;-45
2023/09/17 04:35:19;;;;;;;6.53;3.17;;;;;;;20.74;66.48;98451.06;5091665;28;20032;-45
2023/09/17 04:37:47;;;;;;;8.60;3.60;;;;;;;20.71;66.66;98450.81;5092986;28;20387;-45
2023/09/17 04:40:13;;;;;;;5.93;3.22;;;;;;;20.69;67.02;98452.97;5092921;28;20016;-45
2023/09/17 04:42:43;;;;;;;6.60;3.80;;;;;;;20.67;66.82;98457.75;5091598;28;20026;-45
2023/09/17 04:45:09;;;;;;;13.05;3.25;;;;;;;20.70;66.77;98463.34;5092834;28;20514;-45
2023/09/17 04:47:37;;;;;;;9.27;3.00;;;;;;;20.63;66.94;98456.72;5092812;28;20020;-45
2023/09/17 04:50:04;;;;;;;9.38;3.25;;;;;;;20.60;67.06;98457.25;5092716;28;20097;-45
2023/09/17 04:52:29;;;;;;;7.00;3.67;;;;;;;20.54;67.32;98457.25;5091396;28;20056;-45
2023/09/17 04:54:55;;;;;;;13.60;3.92;;;;;;;20.56;67.96;98456.94;5092602;28;20136;-45
2023/09/17 04:57:21;;;;;;;14.80;3.92;;;;;;;20.75;67.92;98465.19;5092649;28;20489;-45
2023/09/17 04:59:46;;;;;;;10.48;3.40;;;;;;;21.06;67.55;98459.72;5092493;28;20084;-45
2023/09/17 05:02:14;;;;;;;10.13;3.47;;;;;;;21.27;65.53;98471.91;5092449;28;20099;-45
2023/09/17 05:04:40;;;;;;;9.63;3.10;;;;;;;21.25;65.16;98474.06;5092449;28;20034;-45
2023/09/17 05:07:06;;;;;;;8.73;3.30;;;;;;;21.11;65.07;98465.06;5092382;28;20024;-45
2023/09/17 05:09:32;;;;;;;10.05;3.75;;;;;;;21.01;65.59;98467.78;5092442;28;20034;-45
2023/09/17 05:11:58;;;;;;;15.55;4.70;;;;;;;21.05;66.47;98466.94;5092336;28;20390;-45
2023/09/17 05:14:23;;;;;;;14.07;4.00;;;;;;;21.36;66.31;98469.44;5091006;28;20489;-45
2023/09/17 05:16:49;;;;;;;13.00;3.97;;;;;;;21.65;65.40;98474.91;5090893;28;20498;-45
2023/09/17 05:19:15;;;;;;;15.57;4.63;;;;;;;21.71;64.50;98476.47;5092309;28;20036;-45
2023/09/17 05:21:40;;;;;;;25.30;7.32;;;;;;;21.81;64.81;98480.13;5090725;28;20042;-45
2023/09/17 05:24:06;;;;;;;11.65;4.35;;;;;;;22.06;64.02;98482.59;5090871;28;20020;-45
2023/09/17 05:26:32;;;;;;;12.55;4.40;;;;;;;22.42;63.52;98474.28;5092144;28;20077;-45
2023/09/17 05:28:58;;;;;;;17.38;4.57;;;;;;;22.77;62.46;98474.94;5090719;28;20020;-45
2023/09/17 05:31:23;;;;;;;10.30;4.28;;;;;;;23.03;61.66;98480.03;5092039;28;20393;-45
2023/09/17 05:33:50;;;;;;;33.45;10.48;;;;;;;23.08;60.98;98479.94;5090660;28;20398;-45
2023/09/17 05:36:15;;;;;;;13.75;3.75;;;;;;;23.17;60.50;98482.81;5091944;28;20110;-45
2023/09/17 05:38:41;;;;;;;11.20;3.33;;;;;;;23.16;60.13;98483.88;5092031;28;20439;-45
2023/09/17 05:41:07;;;;;;;8.30;3.70;;;;;;;22.92;59.83;98476.66;5090549;28;20402;-45
2023/09/17 05:43:33;;;;;;;31.98;17.15;;;;;;;22.68;60.88;98474.78;5092160;28;20016;-45
2023/09/17 05:45:59;;;;;;;6.68;4.10;;;;;;;22.71;60.33;98473.41;5091887;28;20031;-45
2023/09/17 05:48:24;;;;;;;12.18;3.63;;;;;;;22.53;59.75;98481.09;5090545;28;20028;-45
2023/09/17 05:50:52;;;;;;;8.82;3.33;;;;;;;22.23;59.72;98492.06;5090669;28;20055;-45
2023/09/17 05:53:18;;;;;;;12.02;8.35;;;;;;;21.91;60.66;98486.19;5091812;28;20028;-45
2023/09/17 05:55:44;;;;;;;9.90;4.82;;;;;;;21.62;61.20;98488.81;5090420;28;20028;-45
2023/09/17 05:58:10;;;;;;;8.95;2.90;;;;;;;21.43;61.76;98482.50;5091764;28;20363;-45
2023/09/17 06:00:36;;;;;;;5.30;2.60;;;;;;;21.26;62.24;98482.84;5091818;28;20111;-45
2023/09/17 06:03:01;;;;;;;6.40;2.90;;;;;;;21.17;62.84;98487.97;5092021;28;20508;-45
2023/09/17 06:05:27;;;;;;;10.25;2.72;;;;;;;21.18;63.18;98488.75;5091786;28;20106;-45
2023/09/17 06:07:54;;;;;;;8.90;2.63;;;;;;;21.09;63.44;98486.66;5090463;28;20030;-45
2023/09/17 06:10:21;;;;;;;8.48;2.88;;;;;;;20.99;63.70;98497.38;5091770;28;20028;-45
2023/09/17 06:12:46;;;;;;;6.93;2.45;;;;;;;20.99;63.87;98492.06;5073477;28;20077;-45
2023/09/17 06:15:12;;;;;;;5.43;2.63;;;;;;;20.99;63.54;98492.06;5091582;28;20036;-45
2023/09/17 06:17:38;;;;;;;7.78;2.67;;;;;;;20.93;63.64;98493.16;5091703;28;20020;-45
2023/09/17 06:20:04;;;;;;;6.60;2.60;;;;;;;20.94;64.17;98492.06;5091378;28;20123;-45
2023/09/17 06:22:30;;;;;;;8.52;2.90;;;;;;;21.27;64.53;98490.59;5090570;28;20027;-45
2023/09/17 06:24:56;;;;;;;9.93;2.85;;;;;;;21.70;62.79;98490.09;5091594;28;20020;-45
2023/09/17 06:27:22;;;;;;;15.40;3.83;;;;;;;22.39;62.06;98495.41;5091519;28;20024;-45
2023/09/17 06:29:48;;;;;;;7.57;2.67;;;;;;;23.21;59.39;98499.88;5091556;28;20507;-45
2023/09/17 06:32:13;;;;;;;10.90;3.10;;;;;;;23.78;57.89;98495.34;5091532;28;20024;-45
2023/09/17 06:34:40;;;;;;;17.48;3.75;;;;;;;24.14;55.85;98502.81;5091458;28;20041;-45
2023/09/17 06:37:06;;;;;;;7.55;2.00;;;;;;;24.50;54.15;98504.91;5091370;28;20028;-45
2023/09/17 06:39:32;;;;;;;8.57;2.55;;;;;;;24.81;52.58;98497.06;5091401;28;20032;-45
2023/09/17 06:41:58;;;;;;;7.50;2.83;;;;;;;25.04;51.17;98500.63;5091373;28;20405;-45
2023/09/17 06:44:23;;;;;;;10.18;2.28;;;;;;;25.12;50.42;98501.81;5091399;28;20085;-45
2023/09/17 06:46:50;;;;;;;10.18;2.35;;;;;;;25.11;50.46;98497.53;5091627;28;20024;-45
2023/09/17 06:49:15;;;;;;;6.35;2.50;;;;;;;24.97;50.40;98499.44;5091335;28;20020;-45
2023/09/17 06:51:41;;;;;;;10.50;2.47;;;;;;;25.20;50.33;98495.75;5091154;28;20031;-45
2023/09/17 06:54:07;;;;;;;5.25;1.90;;;;;;;25.66;48.60;98494.75;5094963;28;20028;-45
2023/09/17 06:56:32;;;;;;;13.07;2.90;;;;;;;25.76;48.35;98482.19;5093539;28;20028;-45
2023/09/17 06:58:58;;;;;;;10.90;3.08;;;;;;;25.68;48.91;98489.88;5094864;28;20107;-45
2023/09/17 07:01:24;;;;;;;6.07;2.50;;;;;;;25.90;47.65;98482.94;5095035;28;20103;-45
2023/09/17 07:03:49;;;;;;;10.73;2.80;;;;;;;26.09;47.43;98483.50;5094679;28;20024;-45
2023/09/17 07:06:16;;;;;;;15.60;3.58;;;;;;;26.29;47.01;98486.78;5093428;28;20035;-45
2023/09/17 07:08:42;;;;;;;9.73;2.40;;;;;;;26.11;46.83;98484.00;5094709;28;20020;-45
2023/09/17 07:11:07;;;;;;;12.02;2.88;;;;;;;25.49;48.58;98481.16;5094596;28;20413;-45
2023/09/17 07:13:33;;;;;;;8.50;2.70;;;;;;;24.93;50.06;98483.13;5094659;28;20024;-45
2023/09/17 07:15:59;;;;;;;9.30;2.83;;;;;;;24.99;50.77;98486.50;5094466;28;20081;-45
2023/09/17 07:18:26;;;;;;;13.40;3.60;;;;;;;25.42;50.26;98478.91;5094747;28;20444;-45
2023/09/17 07:20:52;;;;;;;13.77;3.08;;;;;;;26.16;48.64;98484.97;5094153;28;20052;-45
2023/09/17 07:23:17;;;;;;;12.23;3.20;;;;;;;26.86;47.31;98486.91;5094403;28;20079;-45
2023/09/17 07:25:46;;;;;;;10.35;3.97;;;;;;;27.07;45.59;98489.78;5094243;28;20078;-45
2023/09/17 07:28:12;;;;;;;5.85;2.72;;;;;;;26.90;45.82;98489.75;5094228;28;20020;-45
2023/09/17 07:30:39;;;;;;;19.77;3.80;;;;;;;27.23;45.29;98497.44;5094258;28;20038;-45
2023/09/17 07:33:05;;;;;;;8.88;2.80;;;;;;;27.85;44.05;98499.06;5094190;28;20024;-46
2023/09/17 07:35:37;;;;;;;10.63;2.50;;;;;;;28.78;42.13;98480.56;5094105;28;20471;-45
2023/09/17 07:38:03;;;;;;;8.77;3.58;;;;;;;29.56;40.21;98484.66;5075975;28;20107;-46
2023/09/17 07:40:29;;;;;;;7.75;3.00;;;;;;;29.64;39.64;98492.72;5093998;28;20472;-46
2023/09/17 07:42:54;;;;;;;13.23;3.22;;;;;;;29.73;39.36;98497.28;5092723;28;20024;-46
2023/09/17 07:45:20;;;;;;;11.52;3.45;;;;;;;29.91;39.29;98490.59;5093941;28;20516;-46
2023/09/17 07:47:46;;;;;;;7.30;2.67;;;;;;;30.11;38.94;98486.25;5092630;28;20024;-46
2023/09/17 07:50:12;;;;;;;9.43;3.10;;;;;;;30.10;38.51;98486.59;5093847;28;20032;-46
2023/09/17 07:52:39;;;;;;;11.02;3.25;;;;;;;30.42;38.54;98485.75;5093762;28;20523;-46
2023/09/17 07:55:06;;;;;;;8.40;3.35;;;;;;;30.82;37.76;98487.03;5093656;28;20027;-46
2023/09/17 07:57:31;;;;;;;12.75;3.28;;;;;;;31.21;37.59;98496.38;5092428;28;20567;-46
2023/09/17 07:59:57;;;;;;;7.65;2.60;;;;;;;31.57;36.29;98483.88;5093746;28;20024;-46
2023/09/17 08:02:23;;;;;;;7.25;2.97;;;;;;;31.05;37.18;98488.16;5091839;28;20032;-46
2023/09/17 08:04:48;;;;;;;11.43;3.00;;;;;;;30.76;37.71;98491.88;5091941;28;20413;-46
2023/09/17 08:07:16;;;;;;;19.42;4.10;;;;;;;30.97;37.81;98488.28;5093562;28;20103;-46
2023/09/17 08:09:42;;;;;;;16.83;3.92;;;;;;;31.42;37.07;98493.50;5093777;28;20028;-46
2023/09/17 08:12:08;;;;;;;9.38;3.45;;;;;;;31.61;36.34;98486.69;5093504;28;20517;-45
2023/09/17 08:14:34;;;;;;;18.83;4.07;;;;;;;31.66;36.57;98486.44;5093337;28;20047;-46
2023/09/17 08:17:01;;;;;;;14.95;3.50;;;;;;;31.56;36.70;98486.94;5092289;28;20477;-46
2023/09/17 08:19:27;;;;;;;15.90;3.80;;;;;;;31.95;36.87;98493.41;5093061;28;20146;-47
2023/09/17 08:21:52;;;;;;;11.63;3.58;;;;;;;32.33;35.43;98491.31;5093299;28;20114;-46
2023/09/17 08:24:20;;;;;;;15.52;3.30;;;;;;;32.42;34.86;98481.84;5091914;28;20063;-46
2023/09/17 08:26:49;;;;;;;11.52;3.00;;;;;;;32.36;35.36;98482.47;5093056;28;20028;-46
2023/09/17 08:29:15;;;;;;;15.05;3.00;;;;;;;32.39;34.91;98481.75;5093347;28;20098;-46
2023/09/17 08:31:41;;;;;;;12.43;3.50;;;;;;;31.90;35.69;98484.75;5093359;28;20050;-46
2023/09/17 08:34:06;;;;;;;7.47;2.72;;;;;;;31.79;36.00;98481.75;5093047;28;20025;-46
2023/09/17 08:36:32;;;;;;;14.52;4.03;;;;;;;31.96;36.11;98476.00;5091680;28;20502;-46
2023/09/17 08:38:58;;;;;;;12.95;3.83;;;;;;;32.66;34.52;98463.81;5091677;28;20040;-46
2023/09/17 08:41:24;;;;;;;10.32;2.80;;;;;;;33.46;33.23;98466.31;5091549;28;20056;-46
2023/09/17 08:43:52;;;;;;;19.23;3.65;;;;;;;34.21;32.37;98454.16;5092851;28;20389;-46
2023/09/17 08:46:22;;;;;;;11.40;3.05;;;;;;;34.85;31.12;98442.66;5092730;28;20024;-46
2023/09/17 08:48:48;;;;;;;16.45;3.75;;;;;;;35.44;30.57;98462.16;5092733;28;20020;-46
2023/09/17 08:51:18;;;;;;;12.77;3.13;;;;;;;35.63;29.80;98450.28;5092897;28;20069;-46
2023/09/17 08:54:21;;;;;;;17.15;3.80;;;;;;;35.59;29.48;98451.03;5091644;28;20119;-46
2023/09/17 08:56:49;;;;;;;7.70;2.45;;;;;;;35.91;29.27;98447.09;5060696;28;20032;-46
2023/09/17 08:59:26;;;;;;;10.85;2.80;;;;;;;36.21;28.15;98454.41;5092794;28;20028;-46
2023/09/17 09:01:53;;;;;;;13.05;3.28;;;;;;;35.85;29.15;98452.09;5092392;28;20453;-46
2023/09/17 09:04:21;;;;;;;18.73;3.17;;;;;;;35.64;29.18;98443.66;5092555;28;20031;-46
2023/09/17 09:06:48;;;;;;;17.92;3.67;;;;;;;35.45;29.32;98442.69;5092382;28;20028;-46
2023/09/17 09:09:16;;;;;;;11.30;3.58;;;;;;;35.41;28.72;98442.63;5092396;28;20016;-46
2023/09/17 09:11:42;;;;;;;18.83;4.15;;;;;;;35.31;29.63;98437.06;5092235;28;20024;-46
2023/09/17 09:14:08;;;;;;;21.98;3.60;;;;;;;35.55;28.54;98444.75;5092009;28;20028;-46
2023/09/17 09:16:37;;;;;;;16.38;2.85;;;;;;;35.27;28.67;98441.69;5092144;28;20031;-46
2023/09/17 09:19:04;;;;;;;13.88;3.15;;;;;;;35.14;29.47;98441.13;5092250;28;20020;-46
2023/09/17 09:21:30;;;;;;;10.18;2.70;;;;;;;35.14;29.44;98441.91;5091951;28;20051;-46
2023/09/17 09:23:57;;;;;;;16.48;3.30;;;;;;;34.89;29.49;98438.06;5092090;28;20016;-46
2023/09/17 09:26:37;;;;;;;14.15;2.85;;;;;;;34.35;30.55;98426.31;5092131;28;20054;-46
2023/09/17 09:29:07;;;;;;;16.88;4.00;;;;;;;33.63;31.32;98430.53;5092218;28;20024;-46
2023/09/17 09:31:33;;;;;;;15.93;3.35;;;;;;;33.37;32.23;98433.91;5091995;28;20024;-46
2023/09/17 09:34:00;;;;;;;17.30;3.97;;;;;;;33.21;32.19;98423.88;5090693;28;20020;-46
2023/09/17 09:36:27;;;;;;;19.38;3.13;;;;;;;33.74;31.08;98417.91;5090868;28;20024;-46
2023/09/17 09:38:56;;;;;;;14.63;3.20;;;;;;;33.79;31.31;98422.28;5092303;28;20027;-46
2023/09/17 09:41:22;;;;;;;15.00;3.75;;;;;;;34.08;30.77;98420.03;5091911;28;20047;-46
2023/09/17 09:43:48;;;;;;;15.77;3.70;;;;;;;34.71;30.01;98418.72;5091928;28;20020;-44
2023/09/17 09:46:15;;;;;;;19.63;3.83;;;;;;;34.46;29.88;98427.28;5092109;28;20036;-44
2023/09/17 09:48:41;;;;;;;19.20;3.15;;;;;;;34.16;29.88;98422.53;5090894;28;20020;-44
2023/09/17 09:51:07;;;;;;;15.93;3.67;;;;;;;34.46;30.31;98421.84;5092080;28;20362;-44
2023/09/17 09:53:33;;;;;;;22.67;3.83;;;;;;;35.28;29.26;98411.31;5090763;28;20077;-46
2023/09/17 09:55:59;;;;;;;19.30;4.13;;;;;;;36.17;28.93;98410.66;5091696;28;20062;-46
2023/09/17 09:58:25;;;;;;;21.45;4.15;;;;;;;36.54;27.77;98407.81;5091761;28;20073;-46
2023/09/17 10:00:53;;;;;;;20.02;4.53;;;;;;;36.78;27.39;98403.69;5091779;28;20028;-46
2023/09/17 10:03:20;;;;;;;22.15;3.70;;;;;;;36.48;27.10;98414.78;5091761;28;20103;-46
2023/09/17 10:05:46;;;;;;;16.80;3.80;;;;;;;36.37;27.36;98405.72;5091704;28;20058;-46
2023/09/17 10:08:13;;;;;;;22.77;4.35;;;;;;;36.28;26.66;98400.59;5091808;28;20108;-46
2023/09/17 10:10:42;;;;;;;19.13;4.15;;;;;;;36.16;27.21;98393.50;5091662;28;20035;-46
2023/09/17 10:13:10;;;;;;;23.83;4.28;;;;;;;36.09;27.59;98403.53;5091617;28;20539;-46
2023/09/17 10:15:36;;;;;;;22.30;4.63;;;;;;;35.97;27.74;98408.13;5090270;28;20020;-46
2023/09/17 10:18:12;;;;;;;18.00;3.70;;;;;;;35.77;28.19;98393.91;5091596;28;20020;-46
2023/09/17 10:20:42;;;;;;;23.45;3.60;;;;;;;35.82;28.15;98386.50;5091356;28;20051;-46
2023/09/17 10:23:10;;;;;;;29.95;4.45;;;;;;;35.51;28.07;98386.59;5091650;28;20127;-46
2023/09/17 10:25:38;;;;;;;40.80;6.22;;;;;;;35.31;27.81;98377.81;5091529;28;20031;-46
2023/09/17 10:28:05;;;;;;;24.00;4.72;;;;;;;35.30;28.01;98370.78;5077121;28;20028;-46
2023/09/17 10:30:32;;;;;;;31.08;5.65;;;;;;;35.37;27.60;98370.84;5095383;28;20028;-46
2023/09/17 10:33:00;;;;;;;18.23;4.20;;;;;;;35.35;28.05;98375.91;5095692;28;20040;-46
2023/09/17 10:35:28;;;;;;;34.58;5.57;;;;;;;35.47;27.22;98361.22;5095249;28;20028;-46
2023/09/17 10:37:54;;;;;;;39.28;6.22;;;;;;;35.42;27.28;98358.84;5094021;28;20073;-46
2023/09/17 10:40:20;;;;;;;35.22;5.00;;;;;;;35.46;27.64;98361.59;5095571;28;20505;-46
2023/09/17 10:42:47;;;;;;;37.55;5.15;;;;;;;35.92;26.90;98362.06;5095237;28;20104;-46
2023/09/17 10:45:14;;;;;;;30.00;5.85;;;;;;;36.15;26.21;98367.31;5095188;28;20032;-46
2023/09/17 10:47:41;;;;;;;31.48;6.43;;;;;;;35.85;25.57;98361.19;5095090;28;20035;-47
2023/09/17 10:50:08;;;;;;;32.20;5.07;;;;;;;35.43;26.30;98368.56;5095276;28;20424;-46
2023/09/17 10:52:35;;;;;;;30.08;4.20;;;;;;;35.17;26.80;98364.78;5095036;28;20024;-46
2023/09/17 10:55:02;;;;;;;42.65;6.70;;;;;;;35.32;27.01;98354.06;5095195;28;20020;-46
2023/09/17 10:57:41;;;;;;;38.45;5.70;;;;;;;35.83;26.32;98344.41;5094944;28;20035;-46
2023/09/17 11:00:13;;;;;;;34.03;5.22;;;;;;;36.06;26.12;98347.72;5094998;28;20027;-46
2023/09/17 11:02:46;;;;;;;35.60;5.25;;;;;;;35.77;25.99;98338.50;5094834;28;20547;-46
2023/09/17 11:05:17;;;;;;;43.58;7.53;;;;;;;35.77;26.19;98342.00;5094868;28;20031;-46
2023/09/17 11:07:43;;;;;;;23.25;5.60;;;;;;;35.99;26.64;98329.31;5095106;28;20397;-47
2023/09/17 11:10:14;;;;;;;34.17;6.18;;;;;;;36.44;25.70;98325.72;5094755;28;20028;-46
2023/09/17 11:12:41;;;;;;;30.80;4.85;;;;;;;36.50;25.17;98321.44;5093473;28;20013;-46
2023/09/17 11:15:08;;;;;;;31.55;4.93;;;;;;;36.67;25.33;98333.69;5093163;28;20497;-47
2023/09/17 11:17:34;;;;;;;34.97;5.97;;;;;;;36.79;24.92;98320.44;5094611;28;20016;-46
2023/09/17 11:20:00;;;;;;;22.63;4.63;;;;;;;36.68;25.73;98324.31;5094408;28;20040;-46
2023/09/17 11:22:38;;;;;;;28.40;5.32;;;;;;;36.61;25.58;98310.59;5093133;28;20047;-47
2023/09/17 11:25:04;;;;;;;44.80;6.95;;;;;;;36.36;25.58;98313.97;5093429;28;20084;-46
2023/09/17 11:27:49;;;;;;;26.55;4.32;;;;;;;36.40;26.15;98312.03;5094416;28;20111;-47